Portada
METAR-TAF:

METAR-TAF

Aeroports :

Lusaka, Zàmbia

latitud: 15-19-51S, longitud: 028-27-09E, altitud: 1152 m

Observació

L'informe es va fer fa 23 hores i 28 minuts, a les 15:00 UTC
Vent 4 kt del Est/Sud-Est
Temperatura 29°C
Humitat 43%
Pressió 1018 hPa
Visibilitat 10 km o més
sense núvols per sota de 1500 mi sense presència de cumulonimbus.

METAR: FLKK 311500Z 12004KT CAVOK 29/15 Q1018

Hora: 16:28 (14:28 UTC)


TAF: manca

Observacions i pronòstics meteorològics de més de 4000 aeroports (METAR i TAF).

Les estacions disponibles són els punts grocs i vermells al mapa.

Posi el ratolí al punt desitjat per veure el nom de l'estació.

Feu clic per veure les observacions i els pronòstics meteorològics.

Per canviar el mapa: feu clic els botons verds amb una creu de color negre per apropar; al botó verd amb un guió per allunyar la imatge; o en les fletxes verdes per a mapes adjacents.


METAR-TAF: